DW8690 Weather Reports


Display with metric or nautical units.
time (UTC)temp
F
wind
direction
speed
MPH
gust
MPH
rain 1hr
in
rain 24hr
in
rain mn
in
humidity
%
barometer
mb
20260506175004 67 0 0.0 3.0 0.00 0.10 0.01 49 1015.7
20260506174905 67 0 0.0 4.0 0.00 0.10 0.01 49 1015.7
20260506174804 67 0 0.0 4.0 0.00 0.10 0.01 49 1015.7
20260506174604 67 0 0.0 4.0 0.00 0.10 0.01 49 1015.6
20260506174304 66 274 1.0 4.0 0.00 0.10 0.01 50 1015.6
20260506174203 66 0 0.0 4.0 0.00 0.10 0.01 50 1015.6
20260506174104 66 252 1.0 4.0 0.00 0.10 0.01 49 1015.6
20260506173804 66 196 2.0 4.0 0.00 0.10 0.01 50 1015.6
20260506173703 66 192 2.0 4.0 0.00 0.10 0.01 51 1015.6
20260506173504 66 194 1.0 4.0 0.00 0.10 0.01 51 1015.7
20260506173403 66 193 2.0 4.0 0.00 0.10 0.01 50 1015.7
20260506173304 65 204 2.0 4.0 0.00 0.10 0.01 52 1015.6
20260506173203 65 207 2.0 4.0 0.00 0.10 0.01 52 1015.6
20260506173104 65 220 2.0 4.0 0.00 0.10 0.01 52 1015.6
20260506173004 65 228 2.0 4.0 0.00 0.10 0.01 52 1015.7
20260506172903 65 232 2.0 4.0 0.00 0.10 0.01 52 1015.6
20260506172804 65 237 1.0 4.0 0.00 0.10 0.01 52 1015.6
20260506172504 65 234 2.0 4.0 0.00 0.10 0.01 52 1015.5
20260506172403 65 233 2.0 4.0 0.00 0.10 0.01 52 1015.6
20260506172306 64 226 2.0 4.0 0.00 0.10 0.01 54 1015.6
20260506172205 64 226 2.0 4.0 0.00 0.10 0.01 54 1015.5
20260506172103 64 226 1.0 4.0 0.00 0.10 0.01 54 1015.6
20260506172004 64 226 2.0 4.0 0.00 0.10 0.01 54 1015.6
20260506171904 64 226 1.0 4.0 0.00 0.10 0.01 55 1015.5
20260506171803 64 0 0.0 4.0 0.00 0.10 0.01 54 1015.5
20260506171704 64 226 1.0 4.0 0.00 0.10 0.01 53 1015.5
20260506171603 64 230 2.0 4.0 0.00 0.10 0.01 53 1015.5
20260506171504 64 232 2.0 5.0 0.00 0.10 0.01 53 1015.5
20260506171403 64 237 1.0 5.0 0.00 0.10 0.01 54 1015.5
20260506171304 64 236 2.0 7.0 0.00 0.10 0.01 54 1015.6
20260506171203 64 240 2.0 7.0 0.00 0.10 0.01 56 1015.6
20260506171103 64 0 0.0 7.0 0.00 0.10 0.01 55 1015.6
20260506170904 64 0 0.0 7.0 0.00 0.10 0.01 55 1015.6
20260506170804 64 240 2.0 7.0 0.00 0.10 0.01 55 1015.5
20260506170704 64 245 1.0 7.0 0.00 0.10 0.01 56 1015.6
20260506170603 64 250 2.0 7.0 0.00 0.10 0.01 55 1015.5
20260506170504 64 249 3.0 7.0 0.00 0.10 0.01 55 1015.6
20260506170403 64 250 3.0 7.0 0.00 0.10 0.01 58 1015.6
20260506170204 63 0 0.0 4.0 0.00 0.10 0.01 56 1015.6
20260506170003 63 251 2.0 4.0 0.00 0.10 0.01 55 1015.5
20260506165904 63 255 2.0 4.0 0.00 0.10 0.01 56 1015.4
20260506165703 63 248 1.0 4.0 0.00 0.10 0.01 55 1015.5
20260506165504 63 0 0.0 4.0 0.00 0.10 0.01 55 1015.5
20260506165403 63 242 2.0 4.0 0.00 0.10 0.01 55 1015.5
20260506165305 63 237 2.0 4.0 0.00 0.10 0.01 55 1015.5
20260506165203 64 226 2.0 4.0 0.00 0.10 0.01 55 1015.6
20260506165104 64 218 2.0 3.0 0.00 0.10 0.01 55 1015.5
20260506165004 64 207 1.0 3.0 0.00 0.10 0.01 56 1015.4
20260506164904 64 188 1.0 3.0 0.00 0.10 0.01 55 1015.4
20260506164804 64 181 1.0 3.0 0.00 0.10 0.01 56 1015.4
20260506164703 64 171 2.0 3.0 0.00 0.10 0.01 56 1015.4
20260506164604 64 0 0.0 3.0 0.00 0.10 0.01 58 1015.5
20260506164504 64 0 0.0 3.0 0.00 0.10 0.01 58 1015.4
20260506164404 64 184 1.0 3.0 0.00 0.10 0.01 59 1015.4
20260506164304 64 191 2.0 3.0 0.00 0.10 0.01 59 1015.4
20260506164203 64 203 2.0 3.0 0.00 0.10 0.01 59 1015.4
20260506164104 63 194 1.0 3.0 0.00 0.10 0.01 59 1015.5
20260506164004 63 195 1.0 3.0 0.00 0.10 0.01 59 1015.4
20260506163904 63 0 0.0 3.0 0.00 0.10 0.01 58 1015.4
20260506163804 63 0 0.0 3.0 0.00 0.10 0.01 58 1015.4
20260506163604 63 157 2.0 3.0 0.00 0.10 0.01 58 1015.4
20260506163504 63 137 1.0 3.0 0.00 0.10 0.01 59 1015.4
20260506163306 63 0 0.0 3.0 0.00 0.10 0.01 60 1015.4
20260506163204 63 123 1.0 3.0 0.00 0.10 0.01 61 1015.4
20260506163004 63 0 0.0 3.0 0.00 0.10 0.01 61 1015.3
20260506162904 62 0 0.0 3.0 0.00 0.10 0.01 61 1015.4
20260506162804 62 0 0.0 3.0 0.00 0.10 0.01 60 1015.4
20260506162704 62 105 1.0 4.0 0.00 0.10 0.01 60 1015.3
20260506162603 62 102 1.0 4.0 0.00 0.10 0.01 61 1015.4
20260506162404 62 0 0.0 4.0 0.00 0.10 0.01 62 1015.3
20260506162306 62 0 0.0 4.0 0.00 0.10 0.01 62 1015.2
20260506162203 62 0 0.0 4.0 0.00 0.10 0.01 63 1015.4
20260506162104 61 0 0.0 4.0 0.00 0.10 0.01 63 1015.3
20260506162005 61 0 0.0 4.0 0.00 0.10 0.01 63 1015.3
20260506161903 61 83 2.0 4.0 0.00 0.10 0.01 63 1015.3
20260506161804 61 83 1.0 4.0 0.00 0.10 0.01 63 1015.4
20260506161703 61 83 2.0 4.0 0.00 0.10 0.01 64 1015.4
20260506161604 60 81 1.0 4.0 0.00 0.10 0.01 65 1015.4
20260506161504 60 76 1.0 4.0 0.00 0.10 0.01 65 1015.2
20260506161404 60 70 2.0 4.0 0.00 0.10 0.01 65 1015.2
20260506161104 60 59 2.0 5.0 0.00 0.10 0.01 64 1015.2
20260506161003 60 62 1.0 5.0 0.00 0.10 0.01 64 1015.2
20260506160904 60 64 2.0 5.0 0.00 0.10 0.01 64 1015.2
20260506160803 60 71 1.0 5.0 0.00 0.10 0.01 65 1015.3
20260506160704 59 0 0.0 5.0 0.00 0.10 0.01 65 1015.2
20260506160503 59 71 1.0 5.0 0.00 0.10 0.01 65 1015.2
20260506160404 59 70 2.0 5.0 0.00 0.10 0.01 65 1015.2
20260506160304 59 66 2.0 5.0 0.00 0.10 0.01 65 1015.1
20260506160203 59 72 2.0 5.0 0.00 0.10 0.01 65 1015.2
20260506160104 59 76 1.0 4.0 0.00 0.10 0.01 67 1015.2
20260506160003 59 74 1.0 4.0 0.00 0.10 0.01 67 1015.2
20260506155904 59 73 1.0 4.0 0.00 0.10 0.01 66 1015.2
20260506155704 59 0 0.0 3.0 0.00 0.10 0.01 67 1015.2
20260506155604 59 79 1.0 3.0 0.00 0.10 0.01 67 1015.3
20260506155504 59 88 1.0 3.0 0.00 0.10 0.01 67 1015.3
20260506155404 59 102 2.0 3.0 0.00 0.10 0.01 68 1015.2
20260506155306 59 0 0.0 3.0 0.00 0.10 0.01 69 1015.2
20260506155104 58 107 1.0 3.0 0.00 0.10 0.01 69 1015.0
20260506155004 58 0 0.0 3.0 0.00 0.10 0.01 69 1015.1
20260506154904 58 0 0.0 3.0 0.00 0.10 0.01 70 1015.1
20260506154803 60 0 0.0 3.0 0.00 0.10 0.01 70 1015.1
20260506154603 57 0 0.0 3.0 0.00 0.10 0.01 71 1015.1
20260506154504 57 0 0.0 3.0 0.00 0.10 0.01 71 1015.0
20260506154404 57 118 1.0 3.0 0.00 0.10 0.01 71 1015.1
20260506154303 57 118 1.0 3.0 0.00 0.10 0.01 71 1015.0
20260506154204 57 106 1.0 3.0 0.00 0.10 0.01 71 1015.3
20260506154104 57 110 2.0 3.0 0.00 0.10 0.01 72 1015.2
20260506154004 57 0 0.0 4.0 0.00 0.10 0.01 73 1015.2
20260506153803 56 0 0.0 4.0 0.00 0.10 0.01 73 1015.1
20260506153704 56 0 0.0 4.0 0.00 0.10 0.01 73 1015.1
20260506153603 56 0 0.0 4.0 0.00 0.10 0.01 74 1015.0
20260506153504 56 0 0.0 4.0 0.00 0.10 0.01 74 1015.0
20260506153404 56 0 0.0 4.0 0.00 0.10 0.01 75 1015.0
20260506153304 56 0 0.0 4.0 0.00 0.10 0.01 75 1015.0
20260506153203 56 95 1.0 4.0 0.00 0.10 0.01 75 1015.0
20260506153104 56 95 2.0 4.0 0.00 0.10 0.01 76 1014.9
20260506152904 56 96 2.0 4.0 0.00 0.10 0.01 76 1015.1
20260506152803 55 93 1.0 4.0 0.00 0.10 0.01 76 1015.0
20260506152704 55 91 2.0 4.0 0.00 0.10 0.01 76 1015.0
20260506152503 55 92 3.0 4.0 0.00 0.10 0.01 77 1014.9
20260506152404 55 92 1.0 4.0 0.00 0.10 0.01 78 1015.0
20260506152203 55 97 2.0 4.0 0.00 0.10 0.01 78 1015.0
20260506152104 55 102 1.0 4.0 0.00 0.10 0.01 78 1015.0
20260506152003 54 0 0.0 4.0 0.00 0.10 0.01 79 1014.9
20260506151904 54 106 2.0 4.0 0.00 0.10 0.01 79 1014.9
20260506151804 54 111 2.0 4.0 0.00 0.10 0.01 80 1015.0
20260506151703 54 0 0.0 4.0 0.00 0.10 0.01 80 1015.0
20260506151505 54 112 2.0 4.0 0.00 0.10 0.01 80 1015.1
20260506151403 54 116 2.0 4.0 0.00 0.10 0.01 81 1015.0
20260506151204 54 126 2.0 4.0 0.00 0.10 0.01 82 1015.1
20260506151104 53 123 2.0 3.0 0.00 0.10 0.01 82 1015.1
20260506150704 53 115 2.0 4.0 0.00 0.10 0.01 83 1015.1
20260506150604 53 112 2.0 4.0 0.00 0.10 0.01 83 1015.0
20260506150504 53 111 1.0 4.0 0.00 0.10 0.01 84 1015.0
20260506150305 53 104 1.0 5.0 0.00 0.10 0.01 84 1014.9
20260506150204 52 98 1.0 5.0 0.00 0.10 0.01 84 1014.9
20260506150104 52 96 2.0 5.0 0.00 0.10 0.01 85 1014.9
20260506150003 52 95 2.0 5.0 0.00 0.10 0.01 85 1014.9
20260506145604 52 98 2.0 5.0 0.00 0.10 0.01 86 1014.9
20260506145503 52 97 2.0 5.0 0.00 0.10 0.01 87 1014.9
20260506145404 51 97 1.0 5.0 0.00 0.10 0.01 87 1014.8
20260506145305 51 96 2.0 5.0 0.00 0.10 0.01 87 1015.0
20260506145204 51 98 2.0 5.0 0.00 0.10 0.01 87 1014.8
20260506145103 51 98 1.0 5.0 0.00 0.10 0.01 88 1014.8
20260506145004 51 99 2.0 5.0 0.00 0.10 0.01 88 1014.8
20260506144903 51 97 1.0 5.0 0.00 0.10 0.01 88 1014.8
20260506144804 51 97 2.0 5.0 0.00 0.10 0.01 88 1014.8
20260506144603 51 97 4.0 5.0 0.00 0.10 0.01 89 1014.8
20260506144504 51 99 3.0 5.0 0.00 0.10 0.01 89 1014.8
20260506144403 50 102 1.0 4.0 0.00 0.10 0.01 90 1014.8
20260506144304 50 101 1.0 4.0 0.00 0.10 0.01 90 1014.9
20260506144204 50 98 1.0 4.0 0.00 0.10 0.01 90 1014.8
20260506144104 50 97 2.0 4.0 0.00 0.10 0.01 90 1014.7
20260506144004 50 97 2.0 4.0 0.00 0.10 0.01 90 1014.8
20260506143903 49 97 2.0 4.0 0.00 0.10 0.01 90 1014.9
20260506143803 49 100 1.0 4.0 0.00 0.10 0.01 90 1014.9
20260506143704 49 98 1.0 4.0 0.00 0.10 0.01 91 1014.8
20260506143603 49 95 1.0 5.0 0.00 0.10 0.01 91 1014.9
20260506143504 49 96 2.0 5.0 0.00 0.10 0.01 91 1014.8
20260506143403 49 97 2.0 5.0 0.00 0.10 0.01 91 1014.8
20260506143003 48 97 2.0 5.0 0.00 0.10 0.01 91 1014.7
20260506142804 48 90 3.0 5.0 0.00 0.10 0.01 91 1014.6
20260506142703 48 90 4.0 5.0 0.00 0.10 0.01 91 1014.6
20260506142604 48 89 3.0 4.0 0.00 0.10 0.01 91 1014.7
20260506142404 47 85 2.0 4.0 0.00 0.10 0.01 92 1014.6
20260506142203 47 84 2.0 4.0 0.00 0.12 0.01 92 1014.6
20260506142104 47 83 2.0 4.0 0.00 0.12 0.01 92 1014.6
20260506142004 47 83 2.0 4.0 0.00 0.12 0.01 92 1014.6
20260506141904 47 82 2.0 3.0 0.00 0.12 0.01 93 1014.6
20260506141804 47 91 2.0 3.0 0.00 0.12 0.01 93 1014.5
20260506141703 47 91 2.0 3.0 0.00 0.12 0.01 93 1014.7
20260506141604 46 94 2.0 3.0 0.00 0.12 0.01 93 1014.5
20260506141504 46 94 1.0 3.0 0.00 0.12 0.01 93 1014.5
20260506141404 46 94 1.0 3.0 0.00 0.12 0.01 93 1014.6
20260506141203 46 0 0.0 3.0 0.00 0.12 0.01 93 1014.5
20260506141104 46 94 1.0 3.0 0.00 0.12 0.01 93 1014.4
20260506141003 45 0 0.0 3.0 0.00 0.13 0.01 93 1014.4
20260506140904 45 94 1.0 3.0 0.00 0.13 0.01 93 1014.4
20260506140803 45 90 2.0 3.0 0.00 0.13 0.01 94 1014.4
20260506140703 44 90 1.0 2.0 0.00 0.13 0.01 94 1014.4
20260506140604 44 90 1.0 2.0 0.00 0.13 0.01 94 1014.3
20260506140504 44 90 1.0 2.0 0.00 0.13 0.01 94 1014.3
20260506140404 44 90 1.0 2.0 0.00 0.13 0.01 94 1014.3
20260506140304 44 90 1.0 2.0 0.00 0.13 0.01 94 1014.3
20260506140204 44 90 1.0 2.0 0.00 0.13 0.01 94 1014.4
20260506140104 44 90 1.0 2.0 0.00 0.13 0.01 94 1014.4
20260506140003 44 93 1.0 2.0 0.00 0.13 0.01 94 1014.3
20260506135905 44 0 0.0 2.0 0.00 0.13 0.01 94 1014.3
20260506135807 44 99 2.0 2.0 0.00 0.13 0.01 94 1014.3
20260506135604 43 0 0.0 2.0 0.00 0.13 0.01 94 1014.3
20260506135403 43 113 1.0 2.0 0.01 0.13 0.01 94 1014.3
20260506135306 43 0 0.0 2.0 0.01 0.13 0.01 94 1014.3
20260506135103 42 0 0.0 2.0 0.01 0.14 0.01 94 1014.2
20260506135004 42 0 0.0 2.0 0.01 0.14 0.01 94 1014.3
20260506134903 42 0 0.0 1.0 0.01 0.14 0.01 94 1014.2
20260506134804 42 0 0.0 1.0 0.01 0.14 0.01 94 1014.2
20260506134504 42 0 0.0 1.0 0.01 0.14 0.01 94 1014.1
20260506134403 41 0 0.0 1.0 0.01 0.14 0.01 94 1014.1
20260506134303 41 0 0.0 1.0 0.01 0.15 0.01 94 1014.2
20260506134204 41 0 0.0 1.0 0.01 0.15 0.01 94 1014.1
20260506134104 41 0 0.0 1.0 0.01 0.15 0.01 94 1014.1
20260506134003 41 0 0.0 2.0 0.01 0.15 0.01 94 1014.1
20260506133804 41 0 0.0 2.0 0.01 0.16 0.01 94 1014.0
20260506133604 41 0 0.0 2.0 0.01 0.16 0.01 94 1014.1
20260506133504 41 0 0.0 2.0 0.01 0.16 0.01 94 1014.0
20260506133403 41 0 0.0 2.0 0.01 0.16 0.01 94 1014.0
20260506133203 40 0 0.0 2.0 0.01 0.16 0.01 94 1014.0
20260506133104 40 0 0.0 2.0 0.01 0.16 0.01 94 1013.9
20260506133003 40 235 1.0 2.0 0.01 0.16 0.01 94 1013.9
20260506132804 40 0 0.0 2.0 0.01 0.16 0.01 94 1013.9
20260506132703 40 0 0.0 2.0 0.01 0.18 0.01 94 1013.9
20260506132604 40 228 1.0 2.0 0.01 0.18 0.01 94 1013.9
20260506132504 40 229 1.0 2.0 0.01 0.18 0.01 94 1013.9
20260506132306 39 0 0.0 1.0 0.01 0.19 0.01 93 1013.9
20260506132204 39 0 0.0 1.0 0.01 0.19 0.01 93 1013.8
20260506132104 39 0 0.0 1.0 0.01 0.19 0.01 93 1013.8
20260506131904 39 0 0.0 1.0 0.01 0.19 0.01 93 1013.8
20260506131804 39 0 0.0 1.0 0.01 0.19 0.01 93 1013.8
20260506131704 39 0 0.0 1.0 0.01 0.19 0.01 93 1013.7
20260506131604 39 0 0.0 1.0 0.01 0.19 0.01 93 1013.7
20260506131504 39 0 0.0 1.0 0.01 0.20 0.01 93 1013.6
20260506131403 39 0 0.0 1.0 0.01 0.20 0.01 93 1013.7
20260506131304 39 0 0.0 1.0 0.01 0.20 0.01 93 1013.7
20260506131203 39 0 0.0 1.0 0.01 0.20 0.01 93 1013.6
20260506131105 39 0 0.0 1.0 0.01 0.20 0.01 93 1013.6
20260506131004 39 0 0.0 1.0 0.01 0.20 0.01 93 1013.7
20260506130904 39 0 0.0 1.0 0.01 0.20 0.01 93 1013.5
20260506130804 39 0 0.0 1.0 0.01 0.20 0.01 92 1013.6
20260506130703 40 0 0.0 0.0 0.01 0.20 0.01 93 1013.6
20260506130604 40 0 0.0 1.0 0.01 0.21 0.01 93 1013.6
20260506130503 40 0 0.0 1.0 0.01 0.21 0.01 93 1013.4
20260506130403 40 0 0.0 1.0 0.01 0.21 0.01 93 1013.5
20260506130304 40 0 0.0 1.0 0.01 0.21 0.01 93 1013.4
20260506130203 40 0 0.0 1.0 0.01 0.21 0.01 93 1013.4
20260506130104 40 0 0.0 1.0 0.01 0.21 0.01 93 1013.4
20260506130004 40 0 0.0 1.0 0.01 0.21 0.01 93 1013.4
20260506125903 40 0 0.0 2.0 0.01 0.21 0.01 93 1013.4
20260506125804 40 0 0.0 2.0 0.01 0.21 0.01 93 1013.4
20260506125603 40 0 0.0 2.0 0.01 0.22 0.01 93 1013.4
20260506125504 40 0 0.0 2.0 0.00 0.21 0.00 93 1013.3
20260506125403 40 0 0.0 2.0 0.00 0.21 0.00 93 1013.3
20260506125305 40 0 0.0 2.0 0.00 0.21 0.00 93 1013.3
20260506125204 40 0 0.0 2.0 0.00 0.21 0.00 93 1013.3
20260506125004 40 0 0.0 2.0 0.00 0.21 0.00 93 1013.3
20260506124803 40 225 1.0 2.0 0.00 0.21 0.00 93 1013.3
20260506124704 40 0 0.0 2.0 0.00 0.21 0.00 93 1013.2
20260506124603 40 0 0.0 2.0 0.00 0.21 0.00 93 1013.2
20260506124504 40 0 0.0 1.0 0.00 0.21 0.00 93 1013.2
20260506124303 40 0 0.0 0.0 0.00 0.22 0.00 93 1013.2
20260506124204 40 0 0.0 0.0 0.00 0.22 0.00 93 1013.1
20260506124104 40 0 0.0 0.0 0.00 0.22 0.00 93 1013.2
20260506123903 41 0 0.0 1.0 0.00 0.22 0.00 92 1013.1
20260506123804 41 0 0.0 1.0 0.00 0.22 0.00 93 1012.9
20260506123703 41 0 0.0 1.0 0.00 0.22 0.00 93 1013.1
20260506123604 41 0 0.0 1.0 0.00 0.22 0.00 93 1013.1
20260506123504 41 0 0.0 1.0 0.00 0.22 0.00 93 1013.1
20260506123204 41 0 0.0 1.0 0.00 0.22 0.00 93 1013.1
20260506123103 41 0 0.0 1.0 0.00 0.22 0.00 93 1013.0
20260506123004 41 0 0.0 1.0 0.00 0.22 0.00 93 1013.0
20260506122903 41 0 0.0 1.0 0.00 0.22 0.00 93 1013.0
20260506122803 41 0 0.0 2.0 0.00 0.22 0.00 93 1013.1
20260506122704 41 0 0.0 2.0 0.00 0.22 0.00 94 1012.9
20260506122605 41 0 0.0 2.0 0.00 0.22 0.00 94 1013.1
20260506122504 41 0 0.0 2.0 0.00 0.22 0.00 94 1013.1
20260506122404 41 0 0.0 2.0 0.00 0.22 0.00 94 1013.0
20260506122306 41 0 0.0 2.0 0.00 0.22 0.00 94 1012.9
20260506122203 41 0 0.0 2.0 0.00 0.22 0.00 94 1013.0
20260506122104 41 0 0.0 2.0 0.00 0.24 0.00 94 1012.9
20260506122003 41 0 0.0 2.0 0.00 0.24 0.00 94 1012.9
20260506121903 41 0 0.0 2.0 0.00 0.24 0.00 93 1012.9
20260506121804 41 135 1.0 2.0 0.00 0.24 0.00 93 1013.0
20260506121703 41 0 0.0 1.0 0.00 0.24 0.00 93 1012.9
20260506121604 41 0 0.0 1.0 0.00 0.24 0.00 93 1012.9
20260506121503 41 0 0.0 1.0 0.00 0.24 0.00 93 1012.9
20260506121404 41 0 0.0 2.0 0.00 0.24 0.00 93 1012.9
20260506121304 41 0 0.0 2.0 0.00 0.24 0.00 93 1013.0
20260506121203 41 0 0.0 2.0 0.00 0.24 0.00 94 1012.9
20260506121104 41 0 0.0 2.0 0.00 0.24 0.00 94 1012.9
20260506120904 41 0 0.0 2.0 0.00 0.24 0.00 94 1012.9
20260506120804 41 0 0.0 2.0 0.00 0.24 0.00 93 1012.9
20260506120704 41 0 0.0 2.0 0.00 0.24 0.00 93 1012.9
20260506120404 41 121 1.0 2.0 0.00 0.25 0.00 93 1012.8
20260506120304 41 118 1.0 2.0 0.00 0.25 0.00 93 1012.8
20260506120203 41 121 1.0 2.0 0.00 0.25 0.00 93 1012.8
20260506120104 41 121 1.0 2.0 0.00 0.25 0.00 93 1012.8
20260506120004 41 122 1.0 2.0 0.00 0.25 0.00 93 1012.8
20260506115904 41 128 1.0 2.0 0.00 0.25 0.00 93 1012.8
20260506115804 41 132 1.0 2.0 0.00 0.25 0.00 93 1012.8
20260506115704 41 127 1.0 2.0 0.00 0.25 0.00 93 1012.7
20260506115603 41 121 1.0 2.0 0.00 0.25 0.00 93 1012.7
20260506115504 41 0 0.0 2.0 0.00 0.25 0.00 93 1012.7
20260506115404 41 112 1.0 2.0 0.00 0.25 0.00 93 1012.7
20260506115306 41 0 0.0 2.0 0.00 0.25 0.00 93 1012.7
20260506115204 41 104 1.0 3.0 0.00 0.25 0.00 93 1012.7
20260506115103 41 99 1.0 3.0 0.00 0.25 0.00 93 1012.7
20260506115004 41 95 1.0 3.0 0.00 0.25 0.00 93 1012.7
20260506114804 41 0 0.0 3.0 0.00 0.25 0.00 93 1012.7
20260506114703 41 0 0.0 3.0 0.00 0.25 0.00 93 1012.8
20260506114504 41 90 1.0 3.0 0.00 0.25 0.00 93 1012.8
20260506114404 41 90 1.0 3.0 0.00 0.25 0.00 92 1012.8
20260506114303 41 90 1.0 3.0 0.00 0.25 0.00 92 1012.7
20260506114204 41 90 2.0 3.0 0.00 0.25 0.00 92 1012.7
20260506114103 41 90 2.0 2.0 0.00 0.25 0.00 92 1012.7
20260506114003 41 90 2.0 2.0 0.00 0.25 0.00 92 1012.6
20260506113904 41 90 2.0 2.0 0.00 0.25 0.00 92 1012.5
20260506113804 41 0 0.0 2.0 0.00 0.25 0.00 92 1012.6
20260506113503 41 90 1.0 2.0 0.00 0.26 0.00 92 1012.7
20260506113404 41 90 1.0 2.0 0.00 0.26 0.00 92 1012.7
20260506113303 41 0 0.0 1.0 0.00 0.26 0.00 92 1012.5
20260506113204 41 0 0.0 1.0 0.00 0.26 0.00 92 1012.5
20260506113104 41 0 0.0 1.0 0.00 0.26 0.00 92 1012.7
20260506113004 41 0 0.0 2.0 0.00 0.26 0.00 92 1012.5
20260506112904 41 0 0.0 2.0 0.00 0.26 0.00 92 1012.5
20260506112803 41 0 0.0 2.0 0.00 0.26 0.00 93 1012.4
20260506112604 41 0 0.0 2.0 0.00 0.26 0.00 93 1012.4
20260506112503 41 0 0.0 2.0 0.00 0.26 0.00 93 1012.4
20260506112403 41 0 0.0 2.0 0.00 0.26 0.00 93 1012.4
20260506112306 41 0 0.0 2.0 0.00 0.27 0.00 93 1012.5
20260506112203 41 0 0.0 2.0 0.00 0.27 0.00 93 1012.4
20260506112104 41 0 0.0 2.0 0.00 0.27 0.00 93 1012.4
20260506112004 41 0 0.0 2.0 0.00 0.27 0.00 93 1012.3
20260506111604 41 0 0.0 2.0 0.00 0.27 0.00 92 1012.4
20260506111503 41 0 0.0 2.0 0.00 0.28 0.00 92 1012.4
20260506111404 41 0 0.0 2.0 0.00 0.28 0.00 92 1012.5
20260506111303 41 0 0.0 2.0 0.00 0.28 0.00 92 1012.4
20260506111104 41 0 0.0 0.0 0.00 0.28 0.00 92 1012.4
20260506110904 41 0 0.0 1.0 0.00 0.28 0.00 92 1012.4
20260506110804 41 0 0.0 1.0 0.00 0.28 0.00 92 1012.4
20260506110703 41 0 0.0 1.0 0.00 0.28 0.00 92 1012.4
20260506110604 41 0 0.0 1.0 0.00 0.28 0.00 92 1012.4
20260506110403 41 0 0.0 1.0 0.00 0.28 0.00 92 1012.4
20260506110304 41 0 0.0 1.0 0.00 0.28 0.00 92 1012.4
20260506110203 41 0 0.0 2.0 0.00 0.28 0.00 92 1012.3
20260506110004 41 0 0.0 2.0 0.00 0.28 0.00 92 1012.3
20260506105904 41 0 0.0 2.0 0.00 0.28 0.00 91 1012.3
20260506105803 41 0 0.0 2.0 0.00 0.28 0.00 91 1012.3
20260506105604 41 0 0.0 2.0 0.00 0.28 0.00 91 1012.4
20260506105404 41 0 0.0 2.0 0.00 0.28 0.00 91 1012.4
20260506105305 41 0 0.0 2.0 0.00 0.28 0.00 91 1012.2
20260506105204 41 82 1.0 2.0 0.00 0.28 0.00 91 1012.2
20260506105103 41 0 0.0 2.0 0.00 0.28 0.00 91 1012.3
20260506105004 41 0 0.0 2.0 0.00 0.28 0.00 91 1012.2
20260506104803 41 0 0.0 2.0 0.00 0.28 0.00 91 1012.3
20260506104704 42 0 0.0 2.0 0.00 0.28 0.00 91 1012.2
20260506104603 42 0 0.0 2.0 0.00 0.28 0.00 91 1012.3
20260506104404 42 118 1.0 2.0 0.00 0.28 0.00 91 1012.2
20260506104303 42 0 0.0 1.0 0.00 0.28 0.00 91 1012.2
20260506104204 42 0 0.0 1.0 0.00 0.28 0.00 91 1012.2
20260506104104 42 0 0.0 1.0 0.00 0.28 0.00 91 1012.1
20260506104003 42 0 0.0 1.0 0.00 0.28 0.00 91 1012.1
20260506103904 42 0 0.0 1.0 0.00 0.28 0.00 91 1012.3
20260506103604 42 0 0.0 2.0 0.00 0.28 0.00 91 1012.2
20260506103404 42 0 0.0 2.0 0.00 0.28 0.00 91 1012.0
20260506103304 42 0 0.0 2.0 0.00 0.28 0.00 91 1012.2
20260506103103 42 0 0.0 2.0 0.00 0.28 0.00 91 1012.0
20260506103004 42 0 0.0 2.0 0.00 0.28 0.00 91 1012.0
20260506102903 42 0 0.0 2.0 0.00 0.28 0.00 91 1012.1
20260506102804 42 0 0.0 2.0 0.00 0.28 0.00 91 1012.0
20260506102603 42 0 0.0 2.0 0.00 0.28 0.00 91 1012.1
20260506102504 42 0 0.0 2.0 0.00 0.28 0.00 91 1012.0
20260506102403 42 0 0.0 2.0 0.00 0.28 0.00 91 1012.1
20260506102204 42 170 1.0 2.0 0.00 0.28 0.00 91 1012.0
20260506102104 42 0 0.0 2.0 0.00 0.28 0.00 91 1011.9
20260506102004 43 0 0.0 2.0 0.00 0.28 0.00 91 1011.9
20260506101903 43 0 0.0 2.0 0.00 0.28 0.00 91 1012.0
20260506101803 43 155 1.0 2.0 0.00 0.28 0.00 91 1011.9
20260506101704 43 147 1.0 2.0 0.00 0.28 0.00 91 1011.9
20260506101603 43 0 0.0 2.0 0.00 0.28 0.00 92 1011.9
20260506101503 43 0 0.0 2.0 0.00 0.28 0.00 91 1011.9
20260506101404 43 0 0.0 2.0 0.00 0.28 0.00 91 1011.9
20260506101303 43 0 0.0 2.0 0.00 0.28 0.00 91 1011.9
20260506101204 43 135 2.0 2.0 0.00 0.28 0.00 91 1011.9
20260506101104 43 135 1.0 2.0 0.00 0.28 0.00 91 1011.9
20260506100904 43 135 1.0 2.0 0.00 0.28 0.00 91 1011.9
20260506100704 43 0 0.0 2.0 0.00 0.28 0.00 91 1011.9
20260506100503 43 0 0.0 2.0 0.00 0.28 0.00 91 1011.8
20260506100404 43 0 0.0 2.0 0.00 0.28 0.00 91 1011.9
20260506100303 43 0 0.0 2.0 0.00 0.28 0.00 91 1011.9
20260506100204 43 0 0.0 2.0 0.00 0.28 0.00 91 1011.9
20260506100103 43 0 0.0 2.0 0.00 0.28 0.00 91 1011.9
20260506100003 43 0 0.0 2.0 0.00 0.28 0.00 91 1011.8
20260506095904 43 0 0.0 2.0 0.00 0.28 0.00 91 1011.8
20260506095803 43 0 0.0 2.0 0.00 0.28 0.00 91 1011.8
20260506095703 43 0 0.0 2.0 0.00 0.28 0.00 91 1011.8
20260506095604 43 0 0.0 2.0 0.00 0.28 0.00 91 1011.8
20260506095404 43 0 0.0 2.0 0.00 0.28 0.00 91 1011.7
20260506095305 43 0 0.0 2.0 0.00 0.28 0.00 91 1011.8
20260506095204 43 0 0.0 2.0 0.00 0.28 0.00 91 1011.8
20260506095003 43 0 0.0 2.0 0.00 0.28 0.00 91 1011.7
20260506094904 43 0 0.0 2.0 0.00 0.28 0.00 90 1011.7
20260506094804 43 0 0.0 2.0 0.00 0.28 0.00 90 1011.7
20260506094703 43 0 0.0 2.0 0.00 0.28 0.00 90 1011.6
20260506094604 43 0 0.0 2.0 0.00 0.28 0.00 90 1011.6
20260506094503 43 0 0.0 2.0 0.00 0.28 0.00 90 1011.7
20260506094404 43 0 0.0 2.0 0.00 0.28 0.00 90 1011.6
20260506094203 43 0 0.0 2.0 0.00 0.28 0.00 90 1011.6
20260506094104 43 90 1.0 2.0 0.00 0.28 0.00 90 1011.6
20260506093903 43 0 0.0 2.0 0.00 0.28 0.00 90 1011.6
20260506093703 43 90 2.0 2.0 0.00 0.28 0.00 90 1011.6
20260506093603 43 90 2.0 2.0 0.00 0.28 0.00 90 1011.5
20260506093504 43 90 1.0 2.0 0.00 0.28 0.00 90 1011.5
20260506093403 43 0 0.0 2.0 0.00 0.28 0.00 90 1011.6
20260506093204 43 0 0.0 2.0 0.00 0.28 0.00 90 1011.6
20260506093103 43 90 1.0 2.0 0.00 0.28 0.00 90 1011.6
20260506093003 43 0 0.0 2.0 0.00 0.28 0.00 90 1011.5
20260506092904 43 0 0.0 2.0 0.00 0.28 0.00 90 1011.5
20260506092804 43 0 0.0 2.0 0.00 0.28 0.00 90 1011.5
20260506092704 43 0 0.0 2.0 0.00 0.28 0.00 90 1011.4
20260506092604 43 90 1.0 2.0 0.00 0.28 0.00 90 1011.5
20260506092503 43 90 2.0 2.0 0.00 0.28 0.00 90 1011.5
20260506092404 43 90 1.0 2.0 0.00 0.28 0.00 90 1011.5
20260506092305 43 91 1.0 2.0 0.00 0.28 0.00 90 1011.6
20260506092204 43 95 1.0 2.0 0.00 0.28 0.00 90 1011.6
20260506092104 43 0 0.0 2.0 0.00 0.28 0.00 89 1011.5
20260506092003 43 102 1.0 2.0 0.00 0.28 0.00 89 1011.5
20260506091904 43 0 0.0 2.0 0.00 0.28 0.00 89 1011.4
20260506091803 43 0 0.0 2.0 0.00 0.28 0.00 89 1011.4
20260506091704 43 0 0.0 2.0 0.00 0.28 0.00 89 1011.4
20260506091604 43 0 0.0 2.0 0.00 0.28 0.00 89 1011.4
20260506091503 43 0 0.0 2.0 0.00 0.28 0.00 89 1011.4
20260506091403 43 0 0.0 2.0 0.00 0.28 0.00 89 1011.4
20260506091304 43 0 0.0 2.0 0.00 0.28 0.00 89 1011.3
20260506091204 43 0 0.0 2.0 0.00 0.28 0.00 89 1011.3
20260506091104 43 0 0.0 2.0 0.00 0.28 0.00 89 1011.3
20260506091003 43 0 0.0 2.0 0.00 0.28 0.00 89 1011.3
20260506090904 43 0 0.0 2.0 0.00 0.28 0.00 89 1011.3
20260506090804 43 0 0.0 2.0 0.00 0.28 0.00 89 1011.4
20260506090704 44 0 0.0 1.0 0.00 0.28 0.00 89 1011.3
20260506090604 44 0 0.0 1.0 0.00 0.28 0.00 89 1011.3
20260506090404 44 0 0.0 2.0 0.00 0.28 0.00 89 1011.3
20260506090303 44 0 0.0 2.0 0.00 0.28 0.00 89 1011.3
20260506090203 44 0 0.0 2.0 0.00 0.28 0.00 89 1011.4
20260506090104 44 0 0.0 2.0 0.00 0.28 0.00 89 1011.4
20260506090003 44 0 0.0 2.0 0.00 0.28 0.00 89 1011.3
20260506085804 44 0 0.0 2.0 0.00 0.28 0.00 89 1011.4
20260506085703 44 0 0.0 2.0 0.00 0.28 0.00 89 1011.3
20260506085604 44 0 0.0 2.0 0.00 0.28 0.00 89 1011.3
20260506085504 44 0 0.0 2.0 0.00 0.28 0.00 89 1011.4
20260506085404 44 109 1.0 2.0 0.00 0.28 0.00 88 1011.4
20260506085306 44 121 1.0 2.0 0.00 0.28 0.00 88 1011.4
20260506085204 44 0 0.0 2.0 0.00 0.28 0.00 88 1011.3
20260506084903 44 0 0.0 2.0 0.00 0.28 0.00 88 1011.4
20260506084804 44 0 0.0 2.0 0.00 0.28 0.00 88 1011.4
20260506084703 44 0 0.0 2.0 0.00 0.28 0.00 88 1011.3
20260506084604 44 0 0.0 2.0 0.00 0.28 0.00 88 1011.4
20260506084504 44 0 0.0 2.0 0.00 0.28 0.00 88 1011.4
20260506084403 44 0 0.0 2.0 0.00 0.28 0.00 87 1011.4
20260506084204 44 0 0.0 2.0 0.00 0.28 0.00 87 1011.5
20260506084003 44 0 0.0 2.0 0.00 0.28 0.00 87 1011.4
20260506083904 44 0 0.0 2.0 0.00 0.28 0.00 87 1011.4
20260506083803 44 0 0.0 2.0 0.00 0.28 0.00 87 1011.4
20260506083704 44 0 0.0 2.0 0.00 0.28 0.00 87 1011.4
20260506083604 44 0 0.0 2.0 0.00 0.28 0.00 87 1011.4
20260506083503 45 0 0.0 2.0 0.00 0.28 0.00 87 1011.4
20260506083404 45 0 0.0 2.0 0.00 0.28 0.00 87 1011.3
20260506083303 45 0 0.0 2.0 0.00 0.28 0.00 87 1011.4
20260506083204 45 0 0.0 2.0 0.00 0.28 0.00 86 1011.4
20260506083103 45 102 1.0 2.0 0.00 0.28 0.00 86 1011.3
20260506083003 45 107 1.0 2.0 0.00 0.28 0.00 86 1011.3
20260506082904 45 107 1.0 2.0 0.00 0.28 0.00 86 1011.3
20260506082803 46 0 0.0 2.0 0.00 0.28 0.00 87 1011.4
20260506082704 46 0 0.0 1.0 0.00 0.28 0.00 87 1011.4
20260506082603 46 0 0.0 1.0 0.00 0.28 0.00 87 1011.4
20260506082503 46 0 0.0 1.0 0.00 0.28 0.00 86 1011.4
20260506082404 46 0 0.0 1.0 0.00 0.28 0.00 86 1011.4
20260506082305 46 0 0.0 1.0 0.00 0.28 0.00 86 1011.4
20260506082204 46 0 0.0 1.0 0.00 0.28 0.00 86 1011.4
20260506082104 46 0 0.0 1.0 0.00 0.28 0.00 86 1011.4
20260506081904 46 0 0.0 4.0 0.00 0.28 0.00 86 1011.4
20260506081804 46 0 0.0 4.0 0.00 0.28 0.00 86 1011.5
20260506081703 46 0 0.0 4.0 0.00 0.28 0.00 86 1011.4
20260506081404 47 0 0.0 4.0 0.00 0.28 0.00 87 1011.4
20260506081305 47 0 0.0 4.0 0.00 0.28 0.00 87 1011.3
20260506081104 46 294 1.0 4.0 0.00 0.28 0.00 87 1011.3
20260506081003 46 302 2.0 4.0 0.00 0.28 0.00 87 1011.2
20260506080904 46 304 2.0 4.0 0.00 0.28 0.00 87 1011.2
20260506080804 46 0 0.0 4.0 0.00 0.28 0.00 87 1011.3
20260506080703 46 302 3.0 4.0 0.00 0.28 0.00 86 1011.3
20260506080604 46 297 3.0 4.0 0.00 0.28 0.00 86 1011.3
20260506080503 46 293 3.0 4.0 0.00 0.28 0.00 86 1011.5
20260506080404 46 287 3.0 5.0 0.00 0.28 0.00 86 1011.4
20260506080304 46 284 3.0 5.0 0.00 0.28 0.00 86 1011.3
20260506080203 46 278 3.0 5.0 0.00 0.28 0.00 86 1011.3
20260506080104 46 273 3.0 5.0 0.00 0.28 0.00 86 1011.3
20260506073504 47 0 0.0 2.0 0.00 0.28 0.00 82 1011.0
20260506073403 47 0 0.0 2.0 0.00 0.28 0.00 82 1011.0
20260506073304 47 0 0.0 2.0 0.00 0.28 0.00 82 1011.0
20260506073203 48 0 0.0 2.0 0.00 0.28 0.00 82 1011.0
20260506073104 47 0 0.0 2.0 0.00 0.28 0.00 82 1010.9
20260506073004 48 0 0.0 2.0 0.00 0.28 0.00 82 1011.0
20260506072903 48 0 0.0 4.0 0.00 0.28 0.00 82 1010.9
20260506072804 48 0 0.0 4.0 0.00 0.28 0.00 82 1010.9
20260506072703 48 0 0.0 4.0 0.00 0.28 0.00 82 1010.9
20260506072604 48 0 0.0 4.0 0.00 0.28 0.00 82 1010.8
20260506072504 48 0 0.0 4.0 0.00 0.28 0.00 82 1010.9
20260506072404 48 0 0.0 4.0 0.00 0.28 0.00 82 1010.8
20260506072305 48 0 0.0 4.0 0.00 0.28 0.00 82 1010.8
20260506072204 48 0 0.0 4.0 0.00 0.28 0.00 82 1010.8
20260506072104 48 0 0.0 4.0 0.00 0.28 0.00 82 1010.8
20260506072004 48 65 2.0 4.0 0.00 0.28 0.00 82 1010.8
20260506071903 48 55 2.0 3.0 0.00 0.28 0.00 81 1010.9
20260506071804 48 49 2.0 3.0 0.00 0.28 0.00 81 1010.7
20260506071604 48 63 1.0 2.0 0.00 0.28 0.00 81 1010.8
20260506071504 48 0 0.0 2.0 0.00 0.28 0.00 80 1010.8
20260506071403 49 0 0.0 2.0 0.00 0.28 0.00 81 1010.8
20260506071304 49 0 0.0 2.0 0.00 0.28 0.00 80 1010.8
20260506071204 49 0 0.0 2.0 0.00 0.28 0.00 80 1010.8
20260506071103 49 0 0.0 2.0 0.00 0.28 0.00 80 1010.8
20260506071004 49 0 0.0 2.0 0.00 0.28 0.00 80 1010.9
20260506070904 49 0 0.0 2.0 0.00 0.28 0.00 80 1010.8
20260506070804 49 0 0.0 2.0 0.00 0.28 0.00 80 1010.8
20260506070705 49 136 1.0 2.0 0.00 0.28 0.00 79 1010.8
20260506070603 49 132 1.0 2.0 0.00 0.28 0.00 79 1010.8
20260506070403 49 128 1.0 2.0 0.00 0.28 0.00 79 1010.7
20260506070304 49 131 1.0 3.0 0.00 0.28 0.00 79 1010.7
20260506070103 49 141 1.0 4.0 0.00 0.28 0.00 79 1010.8
20260506062504 49 123 2.0 5.0 0.00 0.28 0.28 79 1010.9
20260506062404 49 0 0.0 5.0 0.01 0.28 0.28 79 1011.0
20260506062305 49 0 0.0 5.0 0.01 0.28 0.28 79 1010.9
20260506062204 49 114 1.0 5.0 0.01 0.28 0.28 79 1010.9
20260506062103 50 110 2.0 5.0 0.02 0.28 0.28 79 1010.8
20260506061904 50 102 2.0 5.0 0.04 0.28 0.28 79 1010.8
20260506061603 50 109 1.0 5.0 0.08 0.28 0.28 78 1010.7
20260506061503 50 0 0.0 5.0 0.08 0.28 0.28 78 1010.8
20260506061404 50 0 0.0 5.0 0.08 0.28 0.28 78 1010.7
20260506061303 50 185 2.0 5.0 0.08 0.28 0.28 78 1010.8
20260506061204 50 200 1.0 5.0 0.08 0.28 0.28 78 1010.8
20260506061103 50 210 1.0 5.0 0.08 0.28 0.28 78 1010.8
20260506061004 50 216 2.0 8.0 0.08 0.28 0.28 78 1010.7
20260506060904 51 212 1.0 8.0 0.08 0.28 0.28 78 1010.8
20260506060703 51 220 3.0 14.0 0.08 0.28 0.28 78 1010.6
20260506060604 51 221 3.0 16.0 0.08 0.28 0.28 78 1010.7
20260506060403 51 222 3.0 16.0 0.08 0.28 0.28 78 1010.7
20260506060304 51 223 3.0 16.0 0.08 0.28 0.28 78 1010.7
20260506051304 56 69 14.0 16.0 0.00 0.22 0.20 68 1011.6
20260506051103 56 73 11.0 15.0 0.00 0.22 0.20 69 1011.4
20260506051004 56 80 8.0 13.0 0.00 0.22 0.20 68 1011.1
20260506050904 56 86 7.0 10.0 0.00 0.22 0.20 67 1010.9
20260506050803 55 92 6.0 8.0 0.00 0.22 0.20 67 1010.4
20260506050704 54 92 4.0 8.0 0.00 0.22 0.20 70 1010.1
20260506050503 54 92 4.0 8.0 0.00 0.22 0.20 70 1010.0
20260506050404 54 92 4.0 8.0 0.00 0.22 0.20 70 1009.8
20260506050303 54 92 4.0 8.0 0.00 0.22 0.20 70 1009.9
20260506050204 54 92 4.0 8.0 0.00 0.22 0.20 70 1009.8
20260506050104 54 93 4.0 8.0 0.00 0.22 0.20 70 1009.8
20260506045104 54 108 2.0 7.0 0.00 0.22 0.20 70 1009.5
20260506044904 54 92 2.0 8.0 0.00 0.22 0.20 70 1009.6
20260506044804 54 85 2.0 8.0 0.00 0.23 0.20 70 1009.6
20260506044703 54 84 3.0 8.0 0.00 0.23 0.20 71 1009.6
20260506044604 54 83 4.0 8.0 0.00 0.23 0.20 71 1009.7
20260506044504 54 83 4.0 8.0 0.00 0.23 0.20 71 1009.6
20260506044404 54 83 4.0 8.0 0.00 0.23 0.20 71 1009.6
20260506044304 54 83 4.0 8.0 0.00 0.23 0.20 71 1009.5
20260506044203 54 86 4.0 8.0 0.00 0.23 0.20 71 1009.5
20260506044104 54 86 4.0 8.0 0.00 0.23 0.20 71 1009.5
20260506044004 54 85 5.0 8.0 0.00 0.23 0.20 71 1009.6
20260506043804 54 92 5.0 8.0 0.00 0.23 0.20 71 1009.5
20260506043703 54 99 5.0 8.0 0.00 0.23 0.20 70 1009.5
20260506043604 54 103 4.0 6.0 0.00 0.23 0.20 70 1009.4
20260506043503 54 106 4.0 6.0 0.00 0.23 0.20 70 1009.5
20260506043403 54 109 4.0 6.0 0.00 0.23 0.20 70 1009.4
20260506043103 54 118 4.0 5.0 0.00 0.23 0.20 68 1009.3
20260506043004 54 126 3.0 5.0 0.00 0.23 0.20 68 1009.3
20260506042903 54 132 2.0 4.0 0.00 0.23 0.20 67 1009.4
20260506042804 54 133 2.0 4.0 0.00 0.23 0.20 67 1009.3
20260506042504 54 136 2.0 4.0 0.00 0.24 0.20 66 1009.2
20260506042403 54 138 2.0 4.0 0.00 0.24 0.20 65 1009.1
20260506042204 54 137 2.0 4.0 0.00 0.24 0.20 65 1009.2
20260506042103 54 141 2.0 4.0 0.00 0.24 0.20 65 1009.2
20260506041904 54 0 0.0 2.0 0.00 0.24 0.20 65 1009.1
20260506041803 54 0 0.0 2.0 0.00 0.24 0.20 65 1009.0
20260506041704 54 0 0.0 2.0 0.00 0.24 0.20 65 1009.0
20260506041603 54 0 0.0 2.0 0.00 0.24 0.20 65 1008.9
20260506041503 55 154 1.0 2.0 0.00 0.24 0.20 65 1009.1
20260506041404 55 0 0.0 2.0 0.00 0.24 0.20 65 1008.9
20260506041204 55 194 1.0 2.0 0.00 0.24 0.20 64 1009.0
20260506041104 55 0 0.0 2.0 0.00 0.24 0.20 64 1009.1
20260506040904 55 224 1.0 2.0 0.00 0.24 0.20 64 1009.1
20260506040804 56 0 0.0 2.0 0.00 0.24 0.20 63 1009.0
20260506040703 56 0 0.0 2.0 0.00 0.24 0.20 63 1009.0
20260506040604 56 0 0.0 2.0 0.00 0.24 0.20 63 1009.0
20260506040503 56 0 0.0 3.0 0.00 0.24 0.20 63 1009.0
20260506040403 56 0 0.0 3.0 0.00 0.24 0.20 63 1009.0
20260506040304 56 0 0.0 4.0 0.00 0.24 0.20 63 1009.0
20260506040203 56 0 0.0 4.0 0.00 0.24 0.20 63 1009.0
20260506035903 56 127 1.0 4.0 0.00 0.24 0.20 63 1009.1
20260506035804 56 0 0.0 4.0 0.00 0.24 0.20 63 1009.1
20260506035704 56 0 0.0 4.0 0.00 0.24 0.20 62 1008.9
20260506035603 56 121 1.0 4.0 0.00 0.24 0.20 62 1008.9
20260506035504 56 128 1.0 4.0 0.00 0.24 0.20 62 1008.9
20260506035403 56 127 2.0 4.0 0.00 0.24 0.20 62 1009.0
20260506035306 56 132 1.0 4.0 0.00 0.24 0.20 62 1008.9
20260506035204 56 126 1.0 4.0 0.00 0.24 0.20 61 1008.9
20260506035104 56 126 1.0 4.0 0.00 0.24 0.20 61 1008.9
20260506034903 57 127 1.0 4.0 0.00 0.24 0.20 61 1008.9
20260506034804 57 124 1.0 4.0 0.00 0.24 0.20 61 1009.0
20260506034703 57 123 1.0 4.0 0.00 0.24 0.20 61 1008.9
20260506034604 57 128 1.0 4.0 0.00 0.24 0.20 61 1008.9
20260506034503 57 131 1.0 4.0 0.00 0.24 0.20 61 1008.9
20260506034404 57 127 2.0 5.0 0.00 0.24 0.20 60 1008.9
20260506034304 57 120 2.0 5.0 0.00 0.24 0.20 60 1008.9
20260506034203 57 124 2.0 5.0 0.00 0.24 0.20 60 1008.9
20260506034104 57 130 2.0 5.0 0.00 0.24 0.20 60 1008.8
20260506034004 57 127 2.0 5.0 0.00 0.24 0.20 60 1008.9
20260506033904 57 133 2.0 5.0 0.00 0.24 0.20 60 1008.8
20260506033804 57 136 2.0 5.0 0.00 0.24 0.20 60 1008.9
20260506033704 57 136 1.0 5.0 0.00 0.24 0.20 60 1008.8
20260506033504 57 128 2.0 5.0 0.00 0.24 0.20 60 1008.8
20260506033404 57 126 2.0 5.0 0.00 0.24 0.20 60 1008.7
20260506033203 57 133 2.0 4.0 0.00 0.24 0.20 60 1008.7
20260506033104 57 132 2.0 4.0 0.00 0.24 0.20 60 1008.6
20260506033004 57 132 2.0 4.0 0.00 0.24 0.20 60 1008.6
20260506032804 57 126 2.0 5.0 0.00 0.24 0.20 60 1008.7
20260506032704 57 126 2.0 5.0 0.00 0.24 0.20 60 1008.6
20260506032604 57 133 2.0 5.0 0.00 0.24 0.20 60 1008.6
20260506032404 57 140 1.0 5.0 0.00 0.24 0.20 59 1008.6
20260506032305 57 139 2.0 5.0 0.00 0.24 0.20 59 1008.7
20260506032104 57 135 2.0 5.0 0.00 0.24 0.20 59 1008.7
20260506032004 57 135 3.0 5.0 0.00 0.24 0.20 59 1008.7
20260506031903 57 135 2.0 5.0 0.00 0.24 0.20 59 1008.7
20260506031804 57 139 2.0 5.0 0.00 0.24 0.20 59 1008.6
20260506031704 57 135 2.0 5.0 0.00 0.24 0.20 59 1008.5
20260506031604 57 132 1.0 5.0 0.00 0.24 0.20 59 1008.5
20260506031504 57 0 0.0 5.0 0.00 0.24 0.20 59 1008.5
20260506031403 57 130 2.0 5.0 0.00 0.24 0.20 59 1008.5
20260506031203 57 131 2.0 5.0 0.00 0.24 0.20 59 1008.5
20260506031004 57 131 2.0 5.0 0.00 0.24 0.20 59 1008.5
20260506030804 58 133 2.0 4.0 0.00 0.24 0.20 59 1008.5
20260506030704 58 141 2.0 4.0 0.00 0.24 0.20 58 1008.5
20260506030603 58 142 2.0 4.0 0.00 0.24 0.20 58 1008.4
20260506030504 58 142 2.0 4.0 0.00 0.24 0.20 58 1008.5
20260506030403 58 142 2.0 4.0 0.00 0.24 0.20 58 1008.5
20260506030304 58 142 2.0 4.0 0.00 0.24 0.20 58 1008.4
20260506030204 58 142 2.0 4.0 0.00 0.24 0.20 58 1008.4
20260506030103 58 142 2.0 4.0 0.00 0.24 0.20 58 1008.5
20260506030004 58 144 2.0 4.0 0.00 0.24 0.20 57 1008.4
20260506025903 58 142 2.0 4.0 0.00 0.24 0.20 57 1008.4
20260506025804 58 142 1.0 4.0 0.00 0.24 0.20 57 1008.4
20260506025703 58 135 2.0 4.0 0.00 0.24 0.20 57 1008.4
20260506025604 58 131 2.0 4.0 0.00 0.24 0.20 56 1008.4
20260506025504 59 129 2.0 4.0 0.00 0.24 0.20 56 1008.4
20260506025305 59 133 2.0 4.0 0.00 0.24 0.20 56 1008.4
20260506025203 59 133 1.0 4.0 0.00 0.24 0.20 55 1008.5
20260506025104 59 0 0.0 4.0 0.00 0.24 0.20 55 1008.4
20260506025003 59 132 1.0 4.0 0.00 0.24 0.20 55 1008.4
20260506024904 59 0 0.0 4.0 0.00 0.24 0.20 55 1008.4
20260506024804 59 0 0.0 4.0 0.00 0.24 0.20 54 1008.4
20260506024703 59 136 2.0 4.0 0.00 0.24 0.20 54 1008.4
20260506024604 59 138 1.0 4.0 0.00 0.24 0.20 54 1008.3
20260506024503 60 0 0.0 4.0 0.00 0.24 0.20 54 1008.3
20260506024404 60 127 2.0 4.0 0.00 0.24 0.20 54 1008.3
20260506024303 60 124 2.0 4.0 0.00 0.24 0.20 53 1008.2
20260506024204 60 119 2.0 4.0 0.00 0.24 0.20 53 1008.3
20260506024104 60 124 1.0 4.0 0.00 0.24 0.20 53 1008.3
20260506023903 60 128 1.0 4.0 0.00 0.24 0.20 52 1008.2
20260506023603 61 135 1.0 4.0 0.00 0.24 0.20 51 1008.2
20260506023504 61 143 2.0 4.0 0.00 0.24 0.20 51 1008.2
20260506023304 61 151 2.0 4.0 0.00 0.24 0.20 50 1008.1
20260506023204 62 154 2.0 5.0 0.00 0.24 0.20 50 1008.2
20260506023103 62 146 2.0 5.0 0.00 0.24 0.20 50 1008.2
20260506023004 62 140 2.0 5.0 0.00 0.24 0.20 49 1008.3
20260506022805 62 125 2.0 5.0 0.00 0.24 0.20 48 1008.1
20260506022604 63 135 2.0 5.0 0.00 0.24 0.20 48 1008.2
20260506022504 63 135 2.0 5.0 0.00 0.24 0.20 47 1008.2
20260506022306 63 130 2.0 5.0 0.00 0.24 0.20 47 1008.2
20260506022204 63 124 2.0 5.0 0.00 0.24 0.20 47 1008.2
20260506022103 63 122 3.0 5.0 0.00 0.24 0.20 47 1008.1
20260506022004 63 133 2.0 5.0 0.00 0.24 0.20 47 1008.0
20260506021903 64 143 2.0 5.0 0.00 0.24 0.20 47 1008.1
20260506021804 64 136 2.0 5.0 0.00 0.24 0.20 47 1008.0
20260506021704 64 133 2.0 5.0 0.00 0.24 0.20 47 1008.0
20260506021603 64 125 2.0 7.0 0.00 0.24 0.20 46 1008.1
20260506021504 64 121 2.0 7.0 0.00 0.24 0.20 46 1008.1
20260506021404 64 123 2.0 7.0 0.00 0.24 0.20 46 1008.1
20260506021303 64 127 2.0 7.0 0.00 0.24 0.20 45 1008.1
20260506021204 64 134 2.0 7.0 0.00 0.24 0.20 45 1008.0
20260506021104 64 136 2.0 7.0 0.00 0.24 0.20 45 1008.2
20260506021004 64 134 2.0 7.0 0.00 0.24 0.20 44 1008.0
20260506020803 64 134 2.0 7.0 0.00 0.24 0.20 44 1008.2
20260506020704 65 131 4.0 7.0 0.00 0.24 0.20 43 1008.1
20260506020604 65 131 4.0 7.0 0.00 0.24 0.20 43 1008.1
20260506020503 65 133 4.0 7.0 0.00 0.24 0.20 43 1008.0
20260506020404 65 130 4.0 7.0 0.00 0.24 0.20 43 1008.1
20260506020204 65 123 4.0 7.0 0.00 0.24 0.20 43 1008.0
20260506015904 65 123 3.0 6.0 0.00 0.24 0.20 43 1008.0
20260506015703 65 135 2.0 7.0 0.00 0.24 0.20 43 1008.1
20260506015604 65 132 2.0 7.0 0.00 0.24 0.20 42 1008.1
20260506015203 65 130 2.0 7.0 0.00 0.24 0.20 42 1008.0
20260506015104 65 117 2.0 7.0 0.00 0.24 0.20 41 1008.0
20260506014904 65 122 3.0 7.0 0.00 0.24 0.20 40 1008.0
20260506014804 65 113 3.0 6.0 0.00 0.24 0.20 41 1007.9
20260506014704 65 117 2.0 6.0 0.00 0.24 0.20 41 1008.0
20260506014604 66 120 2.0 6.0 0.00 0.24 0.20 41 1008.0
20260506014503 66 125 2.0 6.0 0.00 0.24 0.20 41 1008.1
20260506014404 66 137 2.0 6.0 0.00 0.24 0.20 41 1008.0
20260506014304 66 130 2.0 6.0 0.00 0.24 0.20 41 1008.0
20260506014204 66 124 2.0 6.0 0.00 0.24 0.20 41 1007.9
20260506013804 66 126 2.0 6.0 0.00 0.24 0.20 40 1008.0
20260506013604 66 135 2.0 6.0 0.00 0.24 0.20 40 1008.0
20260506013503 66 134 2.0 6.0 0.00 0.24 0.20 41 1008.0
20260506013404 66 133 2.0 7.0 0.00 0.24 0.20 41 1008.1
20260506013303 66 140 2.0 7.0 0.00 0.24 0.20 41 1008.1
20260506013104 66 142 2.0 7.0 0.00 0.24 0.20 40 1008.0
20260506013003 66 148 2.0 7.0 0.00 0.24 0.20 40 1008.1
20260506012903 66 175 3.0 7.0 0.00 0.24 0.20 40 1008.1
20260506012503 66 310 3.0 7.0 0.00 0.24 0.20 39 1008.1
20260506012405 66 311 2.0 7.0 0.00 0.24 0.20 39 1008.2
20260506012204 67 322 3.0 7.0 0.00 0.24 0.20 39 1008.2
20260506012104 67 326 3.0 7.0 0.00 0.24 0.20 39 1008.1
20260506012004 67 317 3.0 7.0 0.00 0.24 0.20 39 1008.2
20260506011903 67 316 3.0 7.0 0.00 0.24 0.20 39 1008.1
20260506011804 67 318 3.0 7.0 0.00 0.24 0.20 39 1008.1
20260506011704 67 350 3.0 7.0 0.00 0.24 0.20 39 1008.2
20260506011603 67 104 3.0 7.0 0.00 0.24 0.20 39 1008.1
20260506011504 67 106 3.0 7.0 0.00 0.24 0.20 39 1008.2
20260506011403 67 114 4.0 7.0 0.00 0.24 0.20 39 1008.2
20260506011304 67 122 3.0 6.0 0.00 0.24 0.20 38 1008.1
20260506011204 67 129 2.0 6.0 0.00 0.24 0.20 38 1008.2
20260506011004 67 114 2.0 6.0 0.00 0.24 0.20 38 1008.1
20260506010903 67 119 2.0 6.0 0.00 0.24 0.20 38 1008.2
20260506010804 67 124 2.0 6.0 0.00 0.24 0.20 37 1008.1
20260506010604 67 126 1.0 6.0 0.00 0.24 0.20 37 1008.1
20260506010504 67 137 3.0 6.0 0.00 0.24 0.20 37 1008.2
20260506010404 67 137 1.0 6.0 0.00 0.24 0.20 37 1008.1
20260506010304 67 136 2.0 6.0 0.00 0.24 0.20 37 1008.2
20260506010203 67 132 2.0 6.0 0.00 0.24 0.20 36 1008.2
20260506010104 67 137 2.0 6.0 0.00 0.24 0.20 37 1008.1
20260506010004 67 138 1.0 6.0 0.00 0.24 0.20 36 1008.2
20260506005904 67 133 1.0 6.0 0.00 0.24 0.20 36 1008.1
20260506005804 67 121 1.0 6.0 0.00 0.24 0.20 36 1008.2
20260506005704 67 119 2.0 6.0 0.00 0.24 0.20 37 1008.1
20260506005604 67 121 2.0 5.0 0.00 0.24 0.20 37 1008.2
20260506005504 67 121 2.0 5.0 0.00 0.24 0.20 37 1008.3
20260506005404 67 128 2.0 5.0 0.00 0.24 0.20 37 1008.1
20260506005305 67 128 2.0 5.0 0.00 0.24 0.20 37 1008.1
20260506005204 67 129 2.0 6.0 0.00 0.24 0.20 37 1008.2
20260506005104 67 130 2.0 6.0 0.00 0.24 0.20 37 1008.2
20260506005004 67 130 2.0 6.0 0.00 0.24 0.20 37 1008.3
20260506004904 67 134 3.0 7.0 0.00 0.24 0.20 37 1008.3
20260506004803 67 138 2.0 7.0 0.00 0.24 0.20 38 1008.2
20260506004704 67 137 2.0 7.0 0.00 0.24 0.20 38 1008.4
20260506004604 67 131 2.0 7.0 0.00 0.24 0.20 38 1008.2
20260506004503 67 128 2.0 7.0 0.00 0.24 0.20 38 1008.3
20260506004304 67 127 4.0 7.0 0.00 0.24 0.20 38 1008.3
20260506004204 67 124 3.0 7.0 0.00 0.24 0.20 38 1008.3
20260506004104 67 124 3.0 7.0 0.00 0.24 0.20 38 1008.2
20260506004003 67 124 2.0 7.0 0.00 0.24 0.20 38 1008.2
20260506003904 67 121 4.0 7.0 0.00 0.24 0.20 38 1008.1
20260506003803 67 120 3.0 7.0 0.00 0.24 0.20 38 1008.3
20260506003703 67 124 3.0 7.0 0.00 0.24 0.20 37 1008.2
20260506003604 67 129 2.0 7.0 0.00 0.24 0.20 38 1008.2
20260506003503 67 130 2.0 8.0 0.00 0.24 0.20 38 1008.2
20260506003404 67 133 2.0 8.0 0.00 0.24 0.20 38 1008.2
20260506003303 67 131 4.0 8.0 0.00 0.24 0.20 38 1008.2
20260506003203 67 131 2.0 8.0 0.00 0.24 0.20 38 1008.2
20260506003105 67 132 2.0 8.0 0.00 0.24 0.20 38 1008.2
20260506003004 67 133 2.0 8.0 0.00 0.24 0.20 38 1008.2
20260506002804 67 136 4.0 8.0 0.00 0.24 0.20 38 1008.2
20260506002703 67 136 3.0 8.0 0.00 0.24 0.20 38 1008.3
20260506002505 68 136 4.0 8.0 0.00 0.24 0.20 37 1008.2
20260506002404 67 136 2.0 12.0 0.00 0.24 0.20 38 1008.2
20260506002203 68 134 2.0 12.0 0.00 0.24 0.20 38 1008.2
20260506002104 68 136 3.0 12.0 0.00 0.24 0.20 38 1008.3
20260506002003 68 137 4.0 12.0 0.00 0.24 0.20 38 1008.1
20260506001904 68 137 4.0 12.0 0.00 0.24 0.20 38 1008.2
20260506001803 68 136 4.0 12.0 0.00 0.24 0.20 38 1008.3
20260506001704 68 136 4.0 12.0 0.00 0.24 0.20 38 1008.2
20260506001604 68 136 4.0 12.0 0.00 0.24 0.20 38 1008.1
20260506001504 68 139 4.0 12.0 0.00 0.24 0.20 38 1008.1
20260506001404 68 133 8.0 12.0 0.00 0.24 0.20 38 1008.2
20260506001103 68 118 3.0 8.0 0.00 0.24 0.20 38 1008.2
20260506001004 68 111 2.0 8.0 0.00 0.24 0.20 38 1007.9
20260506000904 68 109 3.0 8.0 0.00 0.24 0.20 38 1008.1
20260506000803 68 104 4.0 8.0 0.00 0.24 0.20 38 1008.1
20260506000704 68 101 2.0 8.0 0.00 0.24 0.20 38 1008.1
20260506000603 68 102 2.0 8.0 0.00 0.24 0.20 37 1008.1
20260506000504 68 100 1.0 8.0 0.00 0.24 0.20 36 1008.1
20260506000303 68 103 3.0 8.0 0.00 0.24 0.20 38 1008.2
20260506000205 68 96 4.0 8.0 0.00 0.24 0.20 38 1008.2
20260506000103 68 87 4.0 6.0 0.00 0.24 0.20 37 1008.2
20260506000003 68 51 2.0 7.0 0.00 0.24 0.20 37 1008.1
20260505235904 68 34 4.0 7.0 0.00 0.24 0.20 37 1008.1
20260505235803 68 51 2.0 7.0 0.00 0.24 0.20 36 1008.2
20260505235603 68 31 2.0 7.0 0.00 0.24 0.20 36 1008.1
20260505235404 68 23 4.0 7.0 0.00 0.24 0.20 35 1008.2
20260505235305 68 0 0.0 7.0 0.00 0.24 0.20 35 1008.2
20260505235204 68 18 2.0 7.0 0.00 0.24 0.20 35 1008.1
20260505235103 68 11 2.0 7.0 0.00 0.24 0.20 34 1008.2
20260505235004 68 5 3.0 7.0 0.00 0.24 0.20 35 1008.0
20260505234903 68 351 2.0 7.0 0.00 0.24 0.20 37 1008.0
20260505234804 68 337 2.0 8.0 0.00 0.24 0.20 37 1008.0
20260505234704 68 331 1.0 8.0 0.00 0.24 0.20 35 1008.0
20260505234604 68 334 2.0 8.0 0.00 0.24 0.20 35 1008.0
20260505234504 68 339 2.0 8.0 0.00 0.24 0.20 35 1008.1
20260505234404 68 340 2.0 8.0 0.00 0.24 0.20 38 1008.2
20260505234304 67 339 2.0 8.0 0.00 0.24 0.20 37 1008.0
20260505234204 67 339 2.0 8.0 0.00 0.24 0.20 35 1008.1
20260505234104 67 346 4.0 8.0 0.00 0.24 0.20 36 1008.1
20260505234003 67 338 4.0 10.0 0.00 0.24 0.20 36 1008.1
20260505233904 68 336 4.0 10.0 0.00 0.24 0.20 36 1008.2
20260505233804 67 335 4.0 10.0 0.00 0.24 0.20 35 1008.1
20260505233704 67 333 1.0 10.0 0.00 0.24 0.20 36 1008.2
20260505233603 67 330 1.0 10.0 0.00 0.24 0.20 36 1008.1
20260505233504 67 331 2.0 10.0 0.00 0.24 0.20 36 1008.2
20260505233403 68 336 4.0 10.0 0.00 0.24 0.20 36 1008.2
20260505233304 68 344 4.0 10.0 0.00 0.24 0.20 37 1008.3
20260505233203 68 341 4.0 10.0 0.00 0.24 0.20 34 1008.3
20260505233104 68 323 6.0 10.0 0.00 0.24 0.20 37 1008.2
20260505233004 68 331 6.0 10.0 0.00 0.24 0.20 37 1008.2
20260505232903 68 334 4.0 8.0 0.00 0.24 0.20 37 1008.2
20260505232804 68 335 2.0 8.0 0.00 0.24 0.20 38 1008.2
20260505232703 67 333 2.0 8.0 0.00 0.24 0.20 38 1008.2
20260505232504 67 340 1.0 8.0 0.00 0.24 0.20 38 1008.3
20260505232403 67 339 2.0 8.0 0.00 0.24 0.20 37 1008.3
20260505232204 67 336 3.0 8.0 0.00 0.24 0.20 38 1008.4
20260505232103 67 338 4.0 8.0 0.00 0.24 0.20 39 1008.4
20260505232004 67 331 4.0 8.0 0.00 0.24 0.20 40 1008.3
20260505231904 67 325 4.0 8.0 0.00 0.24 0.20 40 1008.4
20260505231804 67 322 4.0 8.0 0.00 0.25 0.20 42 1008.4
20260505231704 67 319 4.0 7.0 0.00 0.25 0.20 40 1008.4
20260505231603 66 310 4.0 7.0 0.00 0.25 0.20 42 1008.4
20260505231504 66 302 4.0 7.0 0.00 0.25 0.20 42 1008.4
20260505231403 66 290 2.0 5.0 0.00 0.25 0.20 41 1008.5
20260505231304 65 279 2.0 7.0 0.00 0.25 0.20 42 1008.4
20260505231105 65 278 2.0 7.0 0.00 0.25 0.20 42 1008.4
20260505231004 65 280 2.0 7.0 0.00 0.25 0.20 41 1008.4
20260505230904 65 286 2.0 7.0 0.00 0.25 0.20 40 1008.4
20260505230803 65 291 2.0 7.0 0.00 0.25 0.20 42 1008.5
20260505230704 65 295 2.0 7.0 0.00 0.25 0.20 42 1008.3
20260505230604 65 295 2.0 7.0 0.00 0.25 0.20 44 1008.4
20260505230503 65 296 2.0 8.0 0.00 0.25 0.20 43 1008.3
20260505230404 65 298 4.0 8.0 0.00 0.25 0.20 41 1008.3
20260505230204 65 306 4.0 8.0 0.00 0.25 0.20 41 1008.3
20260505230104 65 305 3.0 8.0 0.00 0.25 0.20 41 1008.4
20260505225904 65 306 3.0 8.0 0.00 0.25 0.20 43 1008.3
20260505225704 65 299 3.0 8.0 0.00 0.25 0.20 42 1008.3
20260505225604 65 298 4.0 8.0 0.00 0.25 0.20 43 1008.3
20260505225504 65 291 4.0 8.0 0.00 0.25 0.20 43 1008.4
20260505225404 65 292 3.0 8.0 0.00 0.25 0.20 43 1008.3
20260505225305 65 292 3.0 8.0 0.00 0.25 0.20 43 1008.4
20260505225204 65 287 3.0 8.0 0.00 0.25 0.20 43 1008.3
20260505225103 65 289 4.0 8.0 0.00 0.25 0.20 44 1008.4
20260505225003 65 283 4.0 8.0 0.00 0.25 0.20 43 1008.4
20260505224904 65 282 4.0 8.0 0.00 0.25 0.20 41 1008.4
20260505224804 65 280 2.0 8.0 0.00 0.25 0.20 44 1008.4
20260505224604 65 270 4.0 8.0 0.00 0.25 0.20 42 1008.3
20260505224503 65 264 4.0 8.0 0.00 0.25 0.20 42 1008.4
20260505224404 65 244 3.0 8.0 0.00 0.25 0.20 45 1008.4
20260505224304 65 216 6.0 8.0 0.00 0.25 0.20 43 1008.4
20260505224204 65 182 5.0 8.0 0.00 0.25 0.20 44 1008.4
20260505224104 65 157 3.0 6.0 0.00 0.25 0.20 44 1008.3
20260505224004 64 148 1.0 6.0 0.00 0.25 0.20 45 1008.5
20260505223904 64 167 3.0 6.0 0.00 0.25 0.20 45 1008.4
20260505223804 64 145 2.0 5.0 0.00 0.25 0.20 45 1008.4
20260505223704 64 146 2.0 4.0 0.00 0.25 0.20 45 1008.4
20260505223603 64 168 2.0 4.0 0.00 0.25 0.20 45 1008.5
20260505223504 64 203 2.0 4.0 0.00 0.25 0.20 45 1008.5
20260505223404 64 0 0.0 4.0 0.00 0.25 0.20 44 1008.5
20260505223104 62 232 2.0 7.0 0.00 0.26 0.20 46 1009.1
20260505223004 62 232 2.0 7.0 0.00 0.27 0.20 46 1009.1
20260505222903 62 232 2.0 7.0 0.00 0.27 0.20 46 1009.1
20260505222804 62 232 2.0 7.0 0.00 0.27 0.20 46 1009.1
20260505222703 62 232 2.0 7.0 0.00 0.27 0.20 46 1009.1
20260505222604 62 232 2.0 7.0 0.00 0.27 0.20 46 1009.1
20260505222504 62 232 2.0 7.0 0.00 0.27 0.20 46 1009.1
20260505222403 62 232 2.0 7.0 0.00 0.27 0.20 46 1009.1
20260505222306 62 232 2.0 7.0 0.00 0.27 0.20 46 1009.1
20260505222204 62 232 2.0 7.0 0.00 0.28 0.20 46 1009.1
20260505222103 62 232 2.0 7.0 0.00 0.28 0.20 46 1009.1
20260505221804 62 232 2.0 7.0 0.00 0.28 0.20 46 1009.1
20260505221704 62 232 2.0 7.0 0.00 0.30 0.20 46 1009.1
20260505221504 62 232 2.0 7.0 0.00 0.30 0.20 46 1009.1
20260505221404 62 232 2.0 7.0 0.00 0.30 0.20 46 1009.1
20260505221304 62 232 2.0 7.0 0.00 0.30 0.20 46 1009.1
20260505221103 62 232 2.0 7.0 0.00 0.30 0.20 46 1009.1
20260505221004 62 232 2.0 7.0 0.00 0.30 0.20 46 1009.1
20260505220904 62 232 2.0 7.0 0.00 0.30 0.20 46 1009.1
20260505220804 62 232 2.0 7.0 0.00 0.30 0.20 46 1009.1
20260505220704 62 232 2.0 7.0 0.00 0.30 0.20 46 1009.1
20260505220603 62 232 2.0 7.0 0.00 0.30 0.20 46 1009.1
20260505220404 62 232 2.0 7.0 0.00 0.30 0.20 46 1009.1
20260505220304 62 232 2.0 7.0 0.00 0.30 0.20 46 1009.1
20260505220204 62 232 2.0 7.0 0.00 0.30 0.20 46 1009.1
20260505220104 62 232 2.0 7.0 0.00 0.30 0.20 46 1009.1
20260505220004 62 232 2.0 7.0 0.00 0.30 0.20 46 1009.1
20260505215903 62 232 2.0 7.0 0.00 0.30 0.20 46 1009.1
20260505215704 62 232 2.0 7.0 0.00 0.30 0.20 46 1009.1
20260505215604 62 232 2.0 7.0 0.00 0.30 0.20 46 1009.1
20260505215504 62 232 2.0 7.0 0.00 0.30 0.20 46 1009.1
20260505215403 62 232 2.0 7.0 0.00 0.30 0.20 46 1009.1
20260505215203 62 232 2.0 7.0 0.00 0.30 0.20 46 1009.1
20260505215104 62 232 2.0 7.0 0.00 0.30 0.20 46 1009.1
20260505215004 62 232 2.0 7.0 0.00 0.30 0.20 46 1009.1
20260505214804 62 232 2.0 7.0 0.00 0.30 0.20 46 1009.1
20260505214704 62 232 2.0 7.0 0.00 0.30 0.20 46 1009.1
20260505214304 62 232 2.0 7.0 0.00 0.30 0.20 46 1009.1
20260505214203 62 232 2.0 7.0 0.00 0.30 0.20 46 1009.1
20260505214104 62 232 2.0 7.0 0.00 0.30 0.20 46 1009.1
20260505213904 62 232 2.0 7.0 0.00 0.30 0.20 46 1009.1
20260505213804 62 232 2.0 7.0 0.00 0.30 0.20 46 1009.1
20260505213704 62 232 2.0 7.0 0.00 0.30 0.20 46 1009.1
20260505213604 62 232 2.0 7.0 0.00 0.30 0.20 46 1009.1
20260505213404 62 232 2.0 7.0 0.00 0.30 0.20 46 1009.1
20260505213303 62 232 2.0 7.0 0.00 0.30 0.20 46 1009.1
20260505213204 62 232 2.0 7.0 0.00 0.30 0.20 46 1009.1
20260505213104 62 232 2.0 7.0 0.00 0.30 0.20 46 1009.1
20260505213003 62 233 2.0 7.0 0.00 0.30 0.20 46 1009.2
20260505212904 62 241 2.0 7.0 0.00 0.30 0.20 45 1009.1
20260505212803 62 242 4.0 8.0 0.00 0.30 0.20 45 1009.2
20260505212704 62 241 3.0 8.0 0.00 0.30 0.20 46 1009.3
20260505212504 62 236 4.0 8.0 0.00 0.30 0.20 45 1009.3
20260505212404 62 230 3.0 8.0 0.00 0.30 0.20 46 1009.3
20260505212305 62 225 3.0 8.0 0.00 0.30 0.20 46 1009.2
20260505212205 63 223 2.0 8.0 0.00 0.30 0.20 47 1009.3
20260505212103 63 214 2.0 8.0 0.00 0.30 0.20 47 1009.3
20260505212004 63 214 4.0 8.0 0.00 0.30 0.20 47 1009.3
20260505211804 63 201 4.0 8.0 0.00 0.30 0.20 46 1009.2
20260505211704 63 196 3.0 5.0 0.00 0.30 0.20 47 1009.3
20260505211604 62 190 1.0 5.0 0.00 0.30 0.20 49 1009.2
20260505211504 62 187 1.0 5.0 0.00 0.30 0.20 49 1009.3
20260505211405 62 187 2.0 5.0 0.00 0.30 0.20 49 1009.3
20260505211203 62 171 1.0 5.0 0.00 0.30 0.20 48 1009.3
20260505211004 62 160 1.0 5.0 0.00 0.30 0.20 49 1009.3
20260505210903 62 145 2.0 5.0 0.00 0.30 0.20 48 1009.3
20260505210804 62 126 2.0 5.0 0.00 0.30 0.20 49 1009.2
20260505210703 62 121 2.0 5.0 0.00 0.30 0.20 50 1009.2
20260505210604 62 117 2.0 5.0 0.00 0.30 0.20 50 1009.2
20260505210503 62 105 2.0 5.0 0.00 0.30 0.20 50 1009.3
20260505210404 62 109 2.0 5.0 0.00 0.30 0.20 51 1009.3
20260505210304 62 117 2.0 5.0 0.00 0.30 0.20 51 1009.3
20260505210104 62 176 2.0 7.0 0.00 0.30 0.20 50 1009.3
20260505210004 62 205 3.0 7.0 0.00 0.30 0.20 50 1009.4
20260505205904 62 215 2.0 7.0 0.00 0.30 0.20 52 1009.3
20260505205803 61 217 2.0 7.0 0.00 0.30 0.20 52 1009.3
20260505205704 61 220 1.0 7.0 0.00 0.30 0.20 52 1009.4
20260505205604 61 220 1.0 7.0 0.00 0.30 0.20 51 1009.3
20260505205505 61 215 2.0 7.0 0.00 0.30 0.20 50 1009.4
20260505205404 61 218 1.0 7.0 0.00 0.30 0.20 50 1009.3
20260505205204 62 207 3.0 7.0 0.00 0.30 0.20 50 1009.3
20260505205003 62 196 2.0 7.0 0.00 0.30 0.20 52 1009.4
20260505204904 62 189 2.0 7.0 0.00 0.30 0.20 53 1009.4
20260505204803 62 195 1.0 4.0 0.00 0.30 0.20 54 1009.5
20260505204705 62 199 2.0 4.0 0.00 0.30 0.20 54 1009.5
20260505204604 62 204 2.0 4.0 0.00 0.30 0.20 54 1009.5
20260505204503 62 211 2.0 4.0 0.00 0.30 0.20 54 1009.5
20260505204404 62 197 2.0 4.0 0.00 0.30 0.20 53 1009.5
20260505204303 62 196 2.0 4.0 0.00 0.30 0.20 55 1009.4
20260505204204 62 187 1.0 4.0 0.00 0.30 0.20 55 1009.6
20260505204104 62 0 0.0 4.0 0.00 0.30 0.20 55 1009.6
20260505204004 62 166 2.0 4.0 0.00 0.30 0.20 54 1009.5
20260505203903 62 165 2.0 4.0 0.00 0.30 0.20 54 1009.5
20260505203804 62 0 0.0 7.0 0.00 0.30 0.20 56 1009.5
20260505203703 61 0 0.0 8.0 0.00 0.30 0.20 56 1009.6
20260505203604 61 203 1.0 8.0 0.00 0.30 0.20 56 1009.5
20260505203403 61 222 2.0 8.0 0.00 0.30 0.20 57 1009.6
20260505203304 60 224 1.0 8.0 0.00 0.30 0.20 58 1009.5
20260505203204 60 229 2.0 8.0 0.00 0.30 0.20 58 1009.5
20260505203104 60 237 1.0 8.0 0.00 0.30 0.20 56 1009.6
20260505203004 60 245 1.0 8.0 0.00 0.30 0.20 56 1009.6
20260505202904 60 241 2.0 8.0 0.00 0.30 0.20 55 1009.6
20260505202804 60 240 4.0 8.0 0.00 0.30 0.20 56 1009.6
20260505202604 59 234 2.0 8.0 0.00 0.30 0.20 59 1009.6
20260505202306 59 235 4.0 8.0 0.00 0.30 0.20 59 1009.6
20260505202203 59 238 4.0 8.0 0.00 0.30 0.20 60 1009.6
20260505202104 59 235 2.0 7.0 0.00 0.30 0.20 60 1009.6
20260505202004 59 245 2.0 7.0 0.00 0.30 0.20 59 1009.5
20260505201903 59 256 3.0 7.0 0.00 0.30 0.20 59 1009.6
20260505201804 59 264 5.0 7.0 0.00 0.30 0.20 59 1009.6
20260505201504 59 279 2.0 7.0 0.00 0.30 0.20 63 1009.6
20260505201403 59 289 2.0 7.0 0.00 0.30 0.20 61 1009.6
20260505201304 59 276 1.0 7.0 0.00 0.30 0.20 60 1009.7
20260505201203 59 283 2.0 7.0 0.00 0.30 0.20 60 1009.6
20260505201104 59 280 2.0 7.0 0.00 0.30 0.20 59 1009.7
20260505201004 59 274 4.0 7.0 0.00 0.30 0.20 59 1009.8
20260505200904 59 279 4.0 7.0 0.00 0.30 0.20 62 1009.7
20260505200804 59 250 2.0 4.0 0.00 0.30 0.20 62 1009.6
20260505200704 58 68 2.0 6.0 0.00 0.30 0.20 62 1009.6
20260505200604 58 54 1.0 6.0 0.00 0.30 0.20 62 1009.7
20260505200503 58 56 1.0 6.0 0.00 0.30 0.20 62 1009.7
20260505200404 58 63 2.0 6.0 0.00 0.30 0.20 62 1009.6
20260505200303 58 0 0.0 6.0 0.00 0.30 0.20 62 1009.7
20260505200204 58 72 1.0 6.0 0.00 0.30 0.20 62 1009.7
20260505200104 58 81 1.0 6.0 0.00 0.30 0.20 63 1009.7
20260505195903 58 89 1.0 6.0 0.00 0.30 0.20 63 1009.7
20260505195604 58 70 2.0 6.0 0.00 0.30 0.20 61 1009.7
20260505195504 58 73 4.0 6.0 0.00 0.30 0.20 63 1009.7
20260505195403 58 74 2.0 6.0 0.00 0.30 0.20 64 1009.7
20260505195305 58 67 2.0 6.0 0.00 0.30 0.20 65 1009.7
20260505195203 57 53 2.0 4.0 0.00 0.30 0.20 66 1009.7
20260505195104 57 356 2.0 5.0 0.00 0.30 0.20 66 1009.7
20260505195004 56 309 2.0 6.0 0.00 0.30 0.20 67 1009.7
20260505194903 59 278 3.0 8.0 0.00 0.30 0.20 67 1009.7
20260505194804 58 260 1.0 8.0 0.00 0.30 0.20 67 1009.7
20260505194703 56 256 2.0 8.0 0.00 0.30 0.20 67 1009.6
20260505194504 56 246 2.0 8.0 0.00 0.30 0.20 66 1009.7
20260505194403 56 248 2.0 8.0 0.00 0.30 0.20 66 1009.8
20260505194304 56 246 2.0 8.0 0.00 0.30 0.20 67 1009.7
20260505194204 56 241 2.0 8.0 0.00 0.30 0.20 65 1009.8
20260505194103 56 232 2.0 8.0 0.00 0.30 0.20 64 1009.7
20260505194004 56 231 6.0 8.0 0.00 0.30 0.20 66 1009.8
20260505193804 56 228 4.0 7.0 0.00 0.30 0.20 66 1009.7
20260505193704 56 223 1.0 7.0 0.00 0.30 0.20 65 1009.7
20260505193604 56 0 0.0 7.0 0.00 0.30 0.20 64 1009.6
20260505193504 56 0 0.0 8.0 0.00 0.30 0.20 64 1009.7
20260505193304 56 224 2.0 8.0 0.00 0.30 0.20 64 1009.6
20260505193204 56 228 2.0 8.0 0.00 0.30 0.20 64 1009.6
20260505193004 56 237 2.0 8.0 0.00 0.30 0.20 65 1009.7
20260505192903 56 240 2.0 8.0 0.00 0.30 0.20 65 1009.7
20260505192704 56 229 4.0 8.0 0.00 0.30 0.20 65 1009.7
20260505192604 56 213 4.0 8.0 0.00 0.30 0.20 64 1009.7
20260505192504 56 194 4.0 8.0 0.00 0.30 0.20 64 1009.7
20260505192403 56 166 2.0 4.0 0.00 0.30 0.20 66 1009.7
20260505192205 56 0 0.0 4.0 0.00 0.30 0.20 66 1009.7
20260505192104 56 132 2.0 4.0 0.00 0.30 0.20 66 1009.8
20260505192004 56 124 1.0 5.0 0.00 0.30 0.20 68 1009.7
20260505191904 56 116 2.0 5.0 0.00 0.30 0.20 69 1009.7
20260505191804 56 117 3.0 5.0 0.00 0.30 0.20 69 1009.8
20260505191703 56 118 2.0 5.0 0.00 0.30 0.20 68 1009.7
20260505191604 56 123 3.0 5.0 0.00 0.30 0.20 70 1009.9
20260505191504 56 129 3.0 5.0 0.00 0.30 0.20 70 1009.8
20260505191404 55 134 2.0 5.0 0.00 0.30 0.20 70 1009.8
20260505191304 55 130 1.0 5.0 0.00 0.30 0.20 69 1009.8
20260505191203 55 149 1.0 5.0 0.00 0.30 0.20 69 1009.7
20260505191104 55 138 2.0 5.0 0.00 0.30 0.20 69 1009.6
20260505191004 55 135 2.0 5.0 0.00 0.30 0.20 70 1009.7
20260505190904 55 151 2.0 5.0 0.00 0.30 0.20 70 1009.7
20260505190704 55 164 1.0 4.0 0.00 0.30 0.20 70 1009.6
20260505190604 55 154 1.0 4.0 0.00 0.30 0.20 70 1009.7
20260505190504 55 143 1.0 4.0 0.00 0.30 0.20 71 1009.8
20260505190404 54 151 1.0 4.0 0.00 0.30 0.20 71 1009.8
20260505190304 54 170 1.0 4.0 0.00 0.30 0.20 72 1009.9
20260505190204 54 167 1.0 4.0 0.00 0.30 0.20 72 1009.8
20260505190104 54 178 2.0 4.0 0.00 0.30 0.20 73 1009.8
20260505190004 54 195 2.0 4.0 0.00 0.30 0.20 74 1009.9
20260505185903 54 214 1.0 3.0 0.01 0.30 0.20 74 1009.9
20260505185804 54 0 0.0 3.0 0.01 0.30 0.20 74 1009.9
20260505185704 53 0 0.0 5.0 0.01 0.30 0.20 74 1009.9
20260505185604 53 0 0.0 5.0 0.01 0.30 0.20 73 1009.9
20260505185504 53 0 0.0 5.0 0.01 0.30 0.20 73 1009.8
20260505185204 53 0 0.0 5.0 0.01 0.30 0.20 74 1009.8
20260505185104 52 0 0.0 5.0 0.01 0.30 0.20 74 1009.8
20260505185004 52 220 1.0 5.0 0.01 0.30 0.20 74 1009.7
20260505184904 52 221 1.0 5.0 0.01 0.30 0.20 74 1009.8
20260505184804 52 212 2.0 5.0 0.01 0.30 0.20 74 1009.9
20260505184704 52 0 0.0 3.0 0.01 0.30 0.20 74 1009.8
20260505184605 52 211 1.0 3.0 0.01 0.30 0.20 74 1009.8
20260505184504 52 192 1.0 4.0 0.01 0.30 0.20 74 1009.9
20260505184304 52 140 1.0 4.0 0.01 0.30 0.20 75 1009.9
20260505184204 52 0 0.0 4.0 0.01 0.30 0.20 75 1009.8
20260505184104 52 0 0.0 4.0 0.01 0.30 0.20 75 1009.7
20260505184004 52 130 1.0 4.0 0.01 0.30 0.20 76 1009.7
20260505183904 52 125 1.0 4.0 0.01 0.30 0.20 76 1009.7
20260505183804 52 125 1.0 4.0 0.01 0.30 0.20 77 1009.7
20260505183704 52 0 0.0 4.0 0.01 0.30 0.20 77 1009.7
20260505183604 51 132 1.0 4.0 0.01 0.30 0.20 77 1009.7
20260505183504 51 132 1.0 4.0 0.01 0.30 0.20 77 1009.7
20260505183404 51 0 0.0 4.0 0.01 0.30 0.20 77 1009.7
20260505183304 51 0 0.0 4.0 0.01 0.30 0.20 77 1009.6
20260505183204 51 0 0.0 4.0 0.01 0.30 0.20 76 1009.7
20260505183105 51 139 1.0 4.0 0.01 0.30 0.20 77 1009.6
20260505183004 51 141 1.0 4.0 0.01 0.30 0.20 77 1009.7
20260505182904 51 144 1.0 4.0 0.01 0.30 0.20 77 1009.7
20260505182804 51 0 0.0 2.0 0.01 0.30 0.20 77 1009.7
20260505182704 51 0 0.0 2.0 0.01 0.30 0.20 77 1009.8
20260505182604 51 0 0.0 2.0 0.01 0.30 0.20 77 1009.8
20260505182504 51 165 1.0 2.0 0.01 0.30 0.20 77 1009.8
20260505182405 51 0 0.0 3.0 0.01 0.30 0.20 76 1009.8
20260505182306 51 0 0.0 4.0 0.01 0.30 0.20 77 1009.7
20260505182205 51 0 0.0 4.0 0.01 0.30 0.20 77 1009.7
20260505182004 50 0 0.0 4.0 0.01 0.30 0.20 76 1009.6
20260505181904 50 0 0.0 4.0 0.01 0.30 0.20 76 1009.7
20260505181804 50 0 0.0 4.0 0.01 0.30 0.20 76 1009.7
20260505181704 50 0 0.0 4.0 0.01 0.30 0.20 76 1009.7
20260505181604 50 223 1.0 4.0 0.01 0.30 0.20 76 1009.6
20260505181504 50 224 1.0 4.0 0.01 0.30 0.20 76 1009.6
20260505181404 50 226 1.0 4.0 0.01 0.30 0.20 77 1009.6
20260505181305 50 232 2.0 4.0 0.01 0.30 0.20 77 1009.5
20260505181204 51 0 0.0 4.0 0.01 0.30 0.20 78 1009.4
20260505181104 51 222 1.0 4.0 0.01 0.30 0.20 78 1009.4
20260505181004 51 207 1.0 4.0 0.01 0.30 0.20 78 1009.5
20260505180805 50 188 2.0 4.0 0.01 0.30 0.20 78 1009.4
20260505180704 50 189 1.0 4.0 0.01 0.30 0.20 78 1009.5
20260505180605 50 191 2.0 4.0 0.01 0.30 0.20 77 1009.3
20260505180504 50 173 2.0 4.0 0.01 0.30 0.20 77 1009.4
20260505180404 50 153 2.0 3.0 0.01 0.30 0.20 79 1009.3
20260505180304 50 0 0.0 3.0 0.01 0.30 0.20 79 1009.4
20260505180204 50 130 1.0 3.0 0.01 0.30 0.20 79 1009.3
20260505180104 50 136 1.0 3.0 0.01 0.30 0.20 80 1009.3
20260505175905 50 0 0.0 3.0 0.00 0.28 0.19 80 1009.3
20260505175804 50 0 0.0 3.0 0.00 0.28 0.19 80 1009.4
20260505175704 50 0 0.0 3.0 0.00 0.28 0.19 80 1009.2
20260505175605 50 129 1.0 3.0 0.00 0.28 0.19 80 1009.3
20260505175504 50 137 1.0 3.0 0.00 0.28 0.19 80 1009.2
20260505175404 50 0 0.0 3.0 0.00 0.28 0.19 80 1009.3
20260505175305 50 0 0.0 3.0 0.00 0.28 0.19 80 1009.4
20260505175204 50 139 1.0 3.0 0.00 0.28 0.19 79 1009.3
20260505175105 50 0 0.0 3.0 0.00 0.28 0.19 79 1009.3